| time (UTC) | temp C | wind direction | speed KPH | gust KPH | rain 1hr cm | rain 24hr cm | rain mn cm | humidity % | barometer mb |
| 20260906123430 | 20 | 290 | 1.6 | 4.8 | 0.00 | 0.00 | 0.00 | 92 | 1007.9 |
| 20260906122430 | 20 | 287 | 1.6 | 4.8 | 0.00 | 0.00 | 0.00 | 92 | 1007.8 |
| 20260906121430 | 20 | 298 | 0.0 | 4.8 | 0.00 | 0.00 | 0.00 | 92 | 1007.6 |
| 20260906120430 | 20 | 272 | 3.2 | 6.4 | 0.00 | 0.00 | 0.00 | 92 | 1007.5 |
| 20260906115430 | 20 | 325 | 0.0 | 4.8 | 0.00 | 0.00 | 0.00 | 92 | 1007.3 |
| 20260906114430 | 20 | 305 | 1.6 | 4.8 | 0.00 | 0.00 | 0.00 | 92 | 1007.3 |
| 20260906113430 | 20 | 301 | 1.6 | 4.8 | 0.00 | 0.00 | 0.00 | 92 | 1007.0 |
| 20260906112430 | 20 | 313 | 3.2 | 8.0 | 0.00 | 0.00 | 0.00 | 92 | 1006.9 |
| 20260906111430 | 20 | 3 | 3.2 | 4.8 | 0.00 | 0.00 | 0.00 | 92 | 1006.6 |
| 20260906110430 | 20 | 290 | 1.6 | 4.8 | 0.00 | 0.00 | 0.00 | 92 | 1007.0 |
| 20260906105430 | 20 | 311 | 1.6 | 4.8 | 0.00 | 0.00 | 0.00 | 91 | 1007.0 |
| 20260906104430 | 20 | 323 | 1.6 | 3.2 | 0.00 | 0.00 | 0.00 | 90 | 1007.1 |
| 20260906103430 | 20 | 289 | 1.6 | 3.2 | 0.00 | 0.00 | 0.00 | 90 | 1006.9 |
| 20260906102430 | 20 | 302 | 1.6 | 4.8 | 0.00 | 0.00 | 0.00 | 91 | 1006.7 |
| 20260906101430 | 20 | 269 | 1.6 | 4.8 | 0.00 | 0.00 | 0.00 | 90 | 1006.6 |
| 20260906100430 | 21 | 303 | 0.0 | 3.2 | 0.00 | 0.00 | 0.00 | 90 | 1006.6 |
| 20260906095430 | 21 | 296 | 1.6 | 4.8 | 0.00 | 0.00 | 0.00 | 89 | 1006.5 |
| 20260906094430 | 21 | 331 | 1.6 | 6.4 | 0.00 | 0.00 | 0.00 | 89 | 1006.5 |
| 20260906093430 | 21 | 288 | 0.0 | 4.8 | 0.00 | 0.00 | 0.00 | 88 | 1006.3 |
| 20260906092430 | 21 | 301 | 1.6 | 4.8 | 0.00 | 0.00 | 0.00 | 88 | 1006.3 |
| 20260906091430 | 21 | 303 | 1.6 | 4.8 | 0.00 | 0.00 | 0.00 | 88 | 1006.3 |
| 20260906090430 | 21 | 280 | 1.6 | 4.8 | 0.00 | 0.00 | 0.00 | 87 | 1006.1 |
| 20260906085430 | 21 | 272 | 3.2 | 8.0 | 0.00 | 0.00 | 0.00 | 86 | 1006.0 |
| 20260906084430 | 21 | 235 | 3.2 | 9.7 | 0.00 | 0.00 | 0.00 | 85 | 1005.9 |
| 20260906083430 | 21 | 288 | 3.2 | 11.3 | 0.00 | 0.00 | 0.00 | 85 | 1005.9 |
| 20260906082430 | 21 | 321 | 4.8 | 11.3 | 0.00 | 0.00 | 0.00 | 84 | 1005.8 |
| 20260906081430 | 21 | 352 | 8.0 | 11.3 | 0.00 | 0.00 | 0.00 | 86 | 1005.9 |
| 20260906080430 | 21 | 285 | 1.6 | 8.0 | 0.00 | 0.00 | 0.00 | 87 | 1005.9 |
| 20260906075430 | 21 | 352 | 3.2 | 8.0 | 0.00 | 0.00 | 0.00 | 87 | 1005.7 |
| 20260906074430 | 21 | 249 | 3.2 | 8.0 | 0.00 | 0.00 | 0.00 | 88 | 1005.6 |
| 20260906073430 | 21 | 200 | 3.2 | 8.0 | 0.00 | 0.00 | 0.00 | 88 | 1005.7 |
| 20260906072430 | 21 | 128 | 3.2 | 11.3 | 0.00 | 0.00 | 0.00 | 88 | 1005.8 |
| 20260906071430 | 21 | 261 | 1.6 | 11.3 | 0.00 | 0.00 | 0.00 | 88 | 1005.7 |
| 20260906070430 | 21 | 213 | 4.8 | 9.7 | 0.00 | 0.00 | 0.00 | 87 | 1005.8 |
| 20260906065430 | 21 | 23 | 1.6 | 8.0 | 0.00 | 0.00 | 0.00 | 86 | 1005.9 |
| 20260906064430 | 21 | 201 | 6.4 | 9.7 | 0.00 | 0.00 | 0.00 | 85 | 1005.9 |
| 20260906063430 | 22 | 300 | 3.2 | 6.4 | 0.00 | 0.00 | 0.00 | 85 | 1006.0 |
| 20260906062430 | 22 | 289 | 1.6 | 9.7 | 0.00 | 0.00 | 0.00 | 83 | 1006.2 |
| 20260906061430 | 22 | 283 | 1.6 | 9.7 | 0.00 | 0.00 | 0.00 | 83 | 1006.1 |
| 20260906060430 | 22 | 175 | 4.8 | 14.5 | 0.00 | 0.00 | 0.00 | 82 | 1006.2 |
| 20260906055430 | 22 | 290 | 4.8 | 14.5 | 0.00 | 0.00 | 0.00 | 81 | 1006.3 |
| 20260906054430 | 22 | 296 | 6.4 | 14.5 | 0.00 | 0.00 | 0.00 | 81 | 1006.4 |
| 20260906053430 | 22 | 109 | 4.8 | 17.7 | 0.00 | 0.00 | 0.00 | 81 | 1006.4 |
| 20260906052430 | 22 | 270 | 1.6 | 9.7 | 0.00 | 0.00 | 0.00 | 80 | 1006.4 |
| 20260906051430 | 23 | 180 | 3.2 | 14.5 | 0.00 | 0.00 | 0.00 | 79 | 1006.3 |
| 20260906050430 | 23 | 157 | 3.2 | 6.4 | 0.00 | 0.00 | 0.00 | 78 | 1006.3 |
| 20260906045430 | 23 | 157 | 1.6 | 6.4 | 0.00 | 0.00 | 0.00 | 77 | 1006.3 |
| 20260906044430 | 22 | 140 | 3.2 | 8.0 | 0.00 | 0.00 | 0.00 | 78 | 1006.3 |
| 20260906043430 | 22 | 77 | 1.6 | 6.4 | 0.00 | 0.00 | 0.00 | 79 | 1006.3 |
| 20260906042430 | 22 | 132 | 1.6 | 9.7 | 0.00 | 0.00 | 0.00 | 79 | 1006.3 |
| 20260906041430 | 22 | 204 | 3.2 | 12.9 | 0.00 | 0.00 | 0.00 | 79 | 1006.2 |
| 20260906040430 | 23 | 152 | 3.2 | 11.3 | 0.00 | 0.00 | 0.00 | 78 | 1006.5 |
| 20260906035430 | 23 | 121 | 1.6 | 4.8 | 0.00 | 0.00 | 0.00 | 78 | 1006.6 |
| 20260906034430 | 23 | 213 | 3.2 | 6.4 | 0.00 | 0.00 | 0.00 | 78 | 1006.6 |
| 20260906033430 | 23 | 218 | 1.6 | 6.4 | 0.00 | 0.00 | 0.00 | 78 | 1006.6 |
| 20260906032430 | 23 | 348 | 1.6 | 8.0 | 0.00 | 0.00 | 0.00 | 77 | 1006.6 |
| 20260906031430 | 23 | 293 | 1.6 | 4.8 | 0.00 | 0.00 | 0.00 | 76 | 1006.7 |
| 20260906030430 | 23 | 316 | 3.2 | 6.4 | 0.00 | 0.00 | 0.00 | 76 | 1006.7 |
| 20260906025430 | 24 | 314 | 4.8 | 9.7 | 0.00 | 0.00 | 0.00 | 74 | 1006.6 |
| 20260906024431 | 24 | 315 | 3.2 | 11.3 | 0.00 | 0.00 | 0.00 | 74 | 1006.5 |
| 20260906023430 | 25 | 317 | 6.4 | 14.5 | 0.00 | 0.00 | 0.00 | 73 | 1006.6 |
| 20260906022430 | 25 | 316 | 6.4 | 14.5 | 0.00 | 0.00 | 0.00 | 71 | 1006.5 |
| 20260906021430 | 25 | 141 | 4.8 | 6.4 | 0.00 | 0.00 | 0.00 | 69 | 1006.4 |
| 20260906020430 | 25 | 138 | 3.2 | 14.5 | 0.00 | 0.00 | 0.00 | 68 | 1006.3 |
| 20260906015430 | 25 | 131 | 3.2 | 16.1 | 0.00 | 0.00 | 0.00 | 65 | 1006.2 |
| 20260906014430 | 25 | 135 | 1.6 | 12.9 | 0.00 | 0.00 | 0.00 | 66 | 1006.1 |
| 20260906013430 | 25 | 153 | 0.0 | 11.3 | 0.00 | 0.00 | 0.00 | 68 | 1005.9 |
| 20260906012430 | 25 | 128 | 11.3 | 19.3 | 0.00 | 0.00 | 0.00 | 69 | 1005.8 |
| 20260906011430 | 25 | 131 | 1.6 | 8.0 | 0.00 | 0.00 | 0.00 | 69 | 1005.8 |
| 20260906010430 | 26 | 0 | 0.0 | 6.4 | 0.00 | 0.00 | 0.00 | 68 | 1005.7 |
| 20260906005430 | 26 | 0 | 0.0 | 6.4 | 0.00 | 0.00 | 0.00 | 67 | 1005.6 |
| 20260906004430 | 26 | 140 | 1.6 | 3.2 | 0.00 | 0.00 | 0.00 | 67 | 1005.5 |
| 20260906003430 | 26 | 148 | 0.0 | 4.8 | 0.00 | 0.00 | 0.00 | 66 | 1005.3 |
| 20260906002430 | 26 | 0 | 0.0 | 4.8 | 0.00 | 0.00 | 0.00 | 66 | 1005.4 |
| 20260906001430 | 26 | 0 | 0.0 | 11.3 | 0.00 | 0.00 | 0.00 | 66 | 1005.2 |
| 20260906000433 | 26 | 140 | 0.0 | 8.0 | 0.00 | 0.00 | 0.00 | 66 | 1004.9 |
| 20260905235430 | 27 | 144 | 0.0 | 4.8 | 0.00 | 0.00 | 0.00 | 65 | 1004.9 |
| 20260905234430 | 27 | 140 | 1.6 | 4.8 | 0.00 | 0.00 | 0.00 | 63 | 1004.9 |
| 20260905233430 | 28 | 141 | 1.6 | 4.8 | 0.00 | 0.00 | 0.00 | 62 | 1005.0 |
| 20260905232430 | 28 | 98 | 1.6 | 4.8 | 0.00 | 0.00 | 0.00 | 59 | 1005.0 |
| 20260905231430 | 30 | 137 | 0.0 | 8.0 | 0.00 | 0.00 | 0.00 | 56 | 1005.0 |
| 20260905230430 | 30 | 82 | 0.0 | 4.8 | 0.00 | 0.00 | 0.00 | 54 | 1005.0 |
| 20260905225430 | 30 | 46 | 3.2 | 6.4 | 0.00 | 0.00 | 0.00 | 55 | 1005.0 |
| 20260905224430 | 31 | 333 | 0.0 | 4.8 | 0.00 | 0.00 | 0.00 | 51 | 1005.2 |
| 20260905223430 | 31 | 283 | 0.0 | 6.4 | 0.00 | 0.00 | 0.00 | 52 | 1005.1 |
| 20260905222430 | 31 | 33 | 4.8 | 9.7 | 0.00 | 0.00 | 0.00 | 50 | 1005.0 |
| 20260905222027 | 31 | 246 | 1.6 | 4.8 | 0.00 | 0.00 | 0.00 | 50 | 1005.0 |
| 20260905221644 | 31 | 274 | 0.0 | 4.8 | 0.00 | 0.00 | 0.00 | 50 | 1005.0 |
| 20260905220150 | 31 | 44 | 1.6 | 4.8 | 0.00 | 0.00 | 0.00 | 50 | 1004.9 |
| 20260905215309 | 31 | 87 | 1.6 | 9.7 | 0.00 | 0.00 | 0.00 | 51 | 1004.8 |
| 20260905214334 | 30 | 285 | 3.2 | 8.0 | 0.00 | 0.00 | 0.00 | 52 | 1004.8 |
| 20260905213334 | 30 | 285 | 3.2 | 9.7 | 0.00 | 0.00 | 0.00 | 55 | 1004.7 |
| 20260905212334 | 30 | 316 | 0.0 | 11.3 | 0.00 | 0.00 | 0.00 | 56 | 1004.6 |
| 20260905211334 | 30 | 8 | 1.6 | 6.4 | 0.00 | 0.00 | 0.00 | 55 | 1004.5 |
| 20260905210334 | 30 | 17 | 1.6 | 3.2 | 0.00 | 0.00 | 0.00 | 54 | 1004.6 |
| 20260905205334 | 30 | 30 | 0.0 | 4.8 | 0.00 | 0.00 | 0.00 | 54 | 1004.6 |
| 20260905204334 | 31 | 74 | 3.2 | 8.0 | 0.00 | 0.00 | 0.00 | 52 | 1004.7 |
| 20260905203334 | 31 | 37 | 1.6 | 6.4 | 0.00 | 0.00 | 0.00 | 50 | 1004.7 |
| 20260905202334 | 32 | 15 | 3.2 | 11.3 | 0.00 | 0.00 | 0.00 | 49 | 1004.7 |
| 20260905201334 | 31 | 332 | 3.2 | 9.7 | 0.00 | 0.00 | 0.00 | 51 | 1004.5 |
| 20260905200334 | 31 | 325 | 3.2 | 8.0 | 0.00 | 0.00 | 0.00 | 53 | 1004.3 |
| 20260905195334 | 30 | 52 | 3.2 | 16.1 | 0.00 | 0.00 | 0.00 | 55 | 1004.3 |
| 20260905194334 | 31 | 61 | 6.4 | 11.3 | 0.00 | 0.00 | 0.00 | 51 | 1004.5 |
| 20260905193334 | 31 | 329 | 1.6 | 8.0 | 0.00 | 0.00 | 0.00 | 52 | 1004.6 |
| 20260905192334 | 31 | 14 | 4.8 | 14.5 | 0.00 | 0.00 | 0.00 | 52 | 1004.7 |
| 20260905191334 | 30 | 281 | 4.8 | 11.3 | 0.00 | 0.00 | 0.00 | 53 | 1004.9 |
| 20260905190334 | 30 | 292 | 1.6 | 8.0 | 0.00 | 0.00 | 0.00 | 52 | 1005.1 |
| 20260905185334 | 30 | 220 | 1.6 | 8.0 | 0.00 | 0.00 | 0.00 | 55 | 1005.4 |
| 20260905184334 | 31 | 291 | 4.8 | 11.3 | 0.00 | 0.00 | 0.00 | 54 | 1005.6 |
| 20260905183334 | 30 | 315 | 1.6 | 9.7 | 0.00 | 0.00 | 0.00 | 56 | 1005.8 |
| 20260905182334 | 30 | 213 | 3.2 | 11.3 | 0.00 | 0.00 | 0.00 | 57 | 1005.9 |
| 20260905181334 | 29 | 61 | 1.6 | 6.4 | 0.00 | 0.00 | 0.00 | 59 | 1006.0 |
| 20260905180334 | 28 | 54 | 3.2 | 9.7 | 0.00 | 0.00 | 0.00 | 60 | 1006.0 |
| 20260905175334 | 29 | 22 | 1.6 | 6.4 | 0.00 | 0.00 | 0.00 | 59 | 1006.2 |
| 20260905174334 | 30 | 192 | 3.2 | 9.7 | 0.00 | 0.00 | 0.00 | 56 | 1006.3 |
| 20260905173334 | 29 | 69 | 3.2 | 6.4 | 0.00 | 0.00 | 0.00 | 55 | 1006.2 |
| 20260905172334 | 28 | 33 | 1.6 | 4.8 | 0.00 | 0.00 | 0.00 | 57 | 1006.3 |
| 20260905171334 | 28 | 4 | 3.2 | 8.0 | 0.00 | 0.00 | 0.00 | 56 | 1006.2 |
| 20260905170334 | 28 | 314 | 4.8 | 11.3 | 0.00 | 0.00 | 0.00 | 56 | 1005.9 |
| 20260905165334 | 28 | 313 | 6.4 | 8.0 | 0.00 | 0.00 | 0.00 | 58 | 1006.2 |
| 20260905164334 | 28 | 315 | 4.8 | 6.4 | 0.00 | 0.00 | 0.00 | 57 | 1006.6 |
| 20260905163334 | 29 | 314 | 3.2 | 11.3 | 0.00 | 0.00 | 0.00 | 56 | 1006.7 |
| 20260905162334 | 29 | 314 | 4.8 | 9.7 | 0.00 | 0.00 | 0.00 | 56 | 1007.1 |
| 20260905161334 | 28 | 315 | 6.4 | 8.0 | 0.00 | 0.00 | 0.00 | 60 | 1007.0 |
| 20260905160334 | 27 | 314 | 3.2 | 11.3 | 0.00 | 0.00 | 0.00 | 62 | 1007.1 |
| 20260905155334 | 26 | 310 | 4.8 | 6.4 | 0.00 | 0.00 | 0.00 | 68 | 1007.5 |
| 20260905154357 | 25 | 296 | 3.2 | 11.3 | 0.00 | 0.00 | 0.00 | 71 | 1007.7 |
| 20260905153357 | 25 | 315 | 4.8 | 8.0 | 0.00 | 0.00 | 0.00 | 71 | 1007.2 |
| 20260905153108 | 25 | 313 | 6.4 | 8.0 | 0.00 | 0.00 | 0.00 | 72 | 1007.3 |
| 20260905152444 | 25 | 314 | 3.2 | 8.0 | 0.00 | 0.00 | 0.00 | 73 | 1007.6 |
| 20260905152206 | 25 | 315 | 6.4 | 8.0 | 0.00 | 0.00 | 0.00 | 72 | 1007.7 |
| 20260905151904 | 25 | 314 | 6.4 | 8.0 | 0.00 | 0.00 | 0.00 | 71 | 1007.7 |
| 20260905151747 | 25 | 314 | 6.4 | 9.7 | 0.00 | 0.00 | 0.00 | 71 | 1007.7 |
| 20260905151112 | 25 | 314 | 4.8 | 9.7 | 0.00 | 0.00 | 0.00 | 70 | 1007.5 |
| 20260905151021 | 25 | 314 | 4.8 | 9.7 | 0.00 | 0.00 | 0.00 | 70 | 1007.5 |
| 20260905150851 | 25 | 314 | 3.2 | 11.3 | 0.00 | 0.00 | 0.00 | 71 | 1007.5 |
| 20260905145757 | 26 | 316 | 4.8 | 8.0 | 0.00 | 0.00 | 0.00 | 72 | 1007.7 |
| 20260905144757 | 26 | 314 | 6.4 | 8.0 | 0.00 | 0.00 | 0.00 | 72 | 1007.7 |
| 20260905143757 | 27 | 315 | 4.8 | 6.4 | 0.00 | 0.00 | 0.00 | 70 | 1007.5 |
| 20260905142757 | 27 | 316 | 4.8 | 6.4 | 0.00 | 0.00 | 0.00 | 70 | 1007.3 |
| 20260905141757 | 27 | 311 | 3.2 | 6.4 | 0.00 | 0.00 | 0.00 | 69 | 1007.3 |
| 20260905140757 | 26 | 311 | 3.2 | 4.8 | 0.00 | 0.00 | 0.00 | 69 | 1007.1 |
| 20260905135757 | 26 | 312 | 3.2 | 4.8 | 0.00 | 0.00 | 0.00 | 74 | 1007.1 |
| 20260905134757 | 25 | 313 | 3.2 | 3.2 | 0.00 | 0.00 | 0.00 | 73 | 1007.0 |
| 20260905133757 | 25 | 316 | 3.2 | 4.8 | 0.00 | 0.00 | 0.00 | 74 | 1007.0 |
| 20260905132757 | 25 | 316 | 4.8 | 8.0 | 0.00 | 0.00 | 0.00 | 75 | 1006.8 |
| 20260905132526 | 25 | 305 | 3.2 | 4.8 | 0.00 | 0.00 | 0.00 | 73 | 1006.8 |
| 20260905131045 | 25 | 309 | 3.2 | 8.0 | 0.00 | 0.00 | 0.00 | 74 | 1006.9 |
| 20260905130045 | 25 | 319 | 3.2 | 16.1 | 0.00 | 0.00 | 0.00 | 74 | 1006.8 |
| 20260905124237 | 24 | 198 | 3.2 | 12.9 | 0.00 | 0.00 | 0.00 | 73 | 1006.7 |